sensor_id;sensor_type;location;lat;lon;timestamp;P1;durP1;ratioP1;P2;durP2;ratioP2
32535;SDS011;18974;50.838;4.636;2022-10-19T00:02:04;8.88;;;2.80;;
32535;SDS011;18974;50.838;4.636;2022-10-19T00:04:29;13.05;;;3.80;;
32535;SDS011;18974;50.838;4.636;2022-10-19T00:06:55;12.27;;;3.17;;
32535;SDS011;18974;50.838;4.636;2022-10-19T00:09:21;13.80;;;4.55;;
32535;SDS011;18974;50.838;4.636;2022-10-19T00:11:47;15.05;;;4.93;;
32535;SDS011;18974;50.838;4.636;2022-10-19T00:14:15;7.25;;;2.95;;
32535;SDS011;18974;50.838;4.636;2022-10-19T00:16:43;9.73;;;3.08;;
32535;SDS011;18974;50.838;4.636;2022-10-19T00:19:12;15.85;;;3.55;;
32535;SDS011;18974;50.838;4.636;2022-10-19T00:21:40;13.68;;;3.63;;
32535;SDS011;18974;50.838;4.636;2022-10-19T00:24:06;13.30;;;3.45;;
32535;SDS011;18974;50.838;4.636;2022-10-19T00:26:33;8.52;;;3.13;;
32535;SDS011;18974;50.838;4.636;2022-10-19T00:28:59;7.45;;;3.20;;
32535;SDS011;18974;50.838;4.636;2022-10-19T00:31:25;16.60;;;3.70;;
32535;SDS011;18974;50.838;4.636;2022-10-19T00:33:51;10.65;;;3.63;;
32535;SDS011;18974;50.838;4.636;2022-10-19T00:38:45;8.15;;;3.65;;
32535;SDS011;18974;50.838;4.636;2022-10-19T00:41:11;11.30;;;3.47;;
32535;SDS011;18974;50.838;4.636;2022-10-19T00:46:21;11.95;;;4.07;;
32535;SDS011;18974;50.838;4.636;2022-10-19T00:48:48;11.35;;;2.95;;
32535;SDS011;18974;50.838;4.636;2022-10-19T00:51:15;11.43;;;3.42;;
32535;SDS011;18974;50.838;4.636;2022-10-19T00:53:40;9.20;;;3.42;;
32535;SDS011;18974;50.838;4.636;2022-10-19T00:56:09;10.93;;;3.50;;
32535;SDS011;18974;50.838;4.636;2022-10-19T00:58:37;9.43;;;2.88;;
32535;SDS011;18974;50.838;4.636;2022-10-19T01:01:05;17.00;;;3.97;;
32535;SDS011;18974;50.838;4.636;2022-10-19T01:03:34;11.60;;;3.72;;
32535;SDS011;18974;50.838;4.636;2022-10-19T01:06:00;8.43;;;2.90;;
32535;SDS011;18974;50.838;4.636;2022-10-19T01:08:27;9.18;;;3.33;;
32535;SDS011;18974;50.838;4.636;2022-10-19T01:19:44;17.48;;;3.50;;
32535;SDS011;18974;50.838;4.636;2022-10-19T01:22:36;10.00;;;3.05;;
32535;SDS011;18974;50.838;4.636;2022-10-19T01:25:30;10.07;;;3.40;;
32535;SDS011;18974;50.838;4.636;2022-10-19T01:36:38;12.20;;;3.58;;
32535;SDS011;18974;50.838;4.636;2022-10-19T01:39:11;12.02;;;3.92;;
32535;SDS011;18974;50.838;4.636;2022-10-19T01:41:46;15.05;;;4.10;;
32535;SDS011;18974;50.838;4.636;2022-10-19T01:47:19;9.02;;;3.10;;
32535;SDS011;18974;50.838;4.636;2022-10-19T01:49:52;11.10;;;3.90;;
32535;SDS011;18974;50.838;4.636;2022-10-19T01:52:19;11.68;;;3.28;;
32535;SDS011;18974;50.838;4.636;2022-10-19T01:54:48;10.77;;;3.63;;
32535;SDS011;18974;50.838;4.636;2022-10-19T01:57:19;11.63;;;3.65;;
32535;SDS011;18974;50.838;4.636;2022-10-19T01:59:56;11.93;;;4.35;;
32535;SDS011;18974;50.838;4.636;2022-10-19T02:02:23;14.27;;;4.05;;
32535;SDS011;18974;50.838;4.636;2022-10-19T02:04:50;14.45;;;4.53;;
32535;SDS011;18974;50.838;4.636;2022-10-19T02:07:20;13.57;;;4.38;;
32535;SDS011;18974;50.838;4.636;2022-10-19T02:09:48;15.10;;;4.28;;
32535;SDS011;18974;50.838;4.636;2022-10-19T02:12:14;22.38;;;4.85;;
32535;SDS011;18974;50.838;4.636;2022-10-19T02:14:42;13.55;;;4.28;;
32535;SDS011;18974;50.838;4.636;2022-10-19T02:17:13;16.10;;;4.45;;
32535;SDS011;18974;50.838;4.636;2022-10-19T02:19:41;9.70;;;4.30;;
32535;SDS011;18974;50.838;4.636;2022-10-19T02:22:08;14.73;;;4.57;;
32535;SDS011;18974;50.838;4.636;2022-10-19T02:24:34;13.68;;;5.60;;
32535;SDS011;18974;50.838;4.636;2022-10-19T02:27:00;9.50;;;4.50;;
32535;SDS011;18974;50.838;4.636;2022-10-19T02:29:29;13.15;;;4.40;;
32535;SDS011;18974;50.838;4.636;2022-10-19T02:31:57;18.08;;;5.65;;
32535;SDS011;18974;50.838;4.636;2022-10-19T02:34:22;12.15;;;4.82;;
32535;SDS011;18974;50.838;4.636;2022-10-19T02:36:48;13.40;;;4.85;;
32535;SDS011;18974;50.838;4.636;2022-10-19T02:39:14;15.18;;;4.45;;
32535;SDS011;18974;50.838;4.636;2022-10-19T02:41:44;20.27;;;5.63;;
32535;SDS011;18974;50.838;4.636;2022-10-19T02:44:17;18.85;;;4.55;;
32535;SDS011;18974;50.838;4.636;2022-10-19T02:49:22;12.45;;;4.78;;
32535;SDS011;18974;50.838;4.636;2022-10-19T02:51:57;16.35;;;5.78;;
32535;SDS011;18974;50.838;4.636;2022-10-19T02:54:33;11.63;;;4.88;;
32535;SDS011;18974;50.838;4.636;2022-10-19T02:56:59;13.27;;;4.32;;
32535;SDS011;18974;50.838;4.636;2022-10-19T02:59:24;14.27;;;5.70;;
32535;SDS011;18974;50.838;4.636;2022-10-19T03:01:50;12.07;;;5.38;;
32535;SDS011;18974;50.838;4.636;2022-10-19T03:04:16;15.10;;;5.30;;
32535;SDS011;18974;50.838;4.636;2022-10-19T03:06:42;9.70;;;5.43;;
32535;SDS011;18974;50.838;4.636;2022-10-19T03:09:10;16.70;;;5.82;;
32535;SDS011;18974;50.838;4.636;2022-10-19T03:11:36;14.07;;;5.15;;
32535;SDS011;18974;50.838;4.636;2022-10-19T03:14:02;16.98;;;5.70;;
32535;SDS011;18974;50.838;4.636;2022-10-19T03:16:27;12.75;;;5.57;;
32535;SDS011;18974;50.838;4.636;2022-10-19T03:18:53;21.88;;;7.15;;
32535;SDS011;18974;50.838;4.636;2022-10-19T03:21:19;15.02;;;5.40;;
32535;SDS011;18974;50.838;4.636;2022-10-19T03:23:45;12.35;;;5.47;;
32535;SDS011;18974;50.838;4.636;2022-10-19T03:26:11;13.60;;;5.75;;
32535;SDS011;18974;50.838;4.636;2022-10-19T03:28:40;12.98;;;5.78;;
32535;SDS011;18974;50.838;4.636;2022-10-19T03:31:06;20.77;;;6.20;;
32535;SDS011;18974;50.838;4.636;2022-10-19T03:33:32;15.57;;;5.82;;
32535;SDS011;18974;50.838;4.636;2022-10-19T03:36:18;14.40;;;5.75;;
32535;SDS011;18974;50.838;4.636;2022-10-19T03:38:50;15.73;;;5.85;;
32535;SDS011;18974;50.838;4.636;2022-10-19T03:41:25;17.67;;;7.15;;
32535;SDS011;18974;50.838;4.636;2022-10-19T03:43:55;16.83;;;6.05;;
32535;SDS011;18974;50.838;4.636;2022-10-19T03:46:21;19.45;;;6.75;;
32535;SDS011;18974;50.838;4.636;2022-10-19T03:48:48;18.30;;;6.20;;
32535;SDS011;18974;50.838;4.636;2022-10-19T03:51:18;17.55;;;6.70;;
32535;SDS011;18974;50.838;4.636;2022-10-19T03:53:46;25.30;;;7.18;;
32535;SDS011;18974;50.838;4.636;2022-10-19T03:56:13;14.65;;;6.53;;
32535;SDS011;18974;50.838;4.636;2022-10-19T03:58:41;16.98;;;6.55;;
32535;SDS011;18974;50.838;4.636;2022-10-19T04:01:10;19.95;;;7.60;;
32535;SDS011;18974;50.838;4.636;2022-10-19T04:03:37;15.77;;;6.90;;
32535;SDS011;18974;50.838;4.636;2022-10-19T04:06:04;23.30;;;8.80;;
32535;SDS011;18974;50.838;4.636;2022-10-19T04:08:35;25.27;;;7.43;;
32535;SDS011;18974;50.838;4.636;2022-10-19T04:11:05;25.17;;;8.20;;
32535;SDS011;18974;50.838;4.636;2022-10-19T04:13:32;16.52;;;7.40;;
32535;SDS011;18974;50.838;4.636;2022-10-19T04:15:58;17.83;;;7.68;;
32535;SDS011;18974;50.838;4.636;2022-10-19T04:18:24;16.75;;;7.07;;
32535;SDS011;18974;50.838;4.636;2022-10-19T04:20:57;19.83;;;7.90;;
32535;SDS011;18974;50.838;4.636;2022-10-19T04:23:27;22.55;;;7.55;;
32535;SDS011;18974;50.838;4.636;2022-10-19T04:26:02;16.42;;;8.15;;
32535;SDS011;18974;50.838;4.636;2022-10-19T04:28:29;19.75;;;8.25;;
32535;SDS011;18974;50.838;4.636;2022-10-19T04:30:55;14.85;;;6.43;;
32535;SDS011;18974;50.838;4.636;2022-10-19T04:33:21;14.90;;;7.15;;
32535;SDS011;18974;50.838;4.636;2022-10-19T04:35:48;16.85;;;6.82;;
32535;SDS011;18974;50.838;4.636;2022-10-19T04:38:13;18.50;;;7.70;;
32535;SDS011;18974;50.838;4.636;2022-10-19T04:40:39;20.85;;;7.40;;
32535;SDS011;18974;50.838;4.636;2022-10-19T04:43:05;26.65;;;7.47;;
32535;SDS011;18974;50.838;4.636;2022-10-19T04:45:31;18.98;;;7.70;;
32535;SDS011;18974;50.838;4.636;2022-10-19T04:47:59;24.98;;;7.60;;
32535;SDS011;18974;50.838;4.636;2022-10-19T04:50:26;17.40;;;7.53;;
32535;SDS011;18974;50.838;4.636;2022-10-19T04:52:51;21.75;;;8.15;;
32535;SDS011;18974;50.838;4.636;2022-10-19T04:55:17;26.58;;;7.97;;
32535;SDS011;18974;50.838;4.636;2022-10-19T04:57:43;18.00;;;7.38;;
32535;SDS011;18974;50.838;4.636;2022-10-19T05:00:09;24.50;;;7.53;;
32535;SDS011;18974;50.838;4.636;2022-10-19T05:02:35;22.23;;;7.68;;
32535;SDS011;18974;50.838;4.636;2022-10-19T05:05:00;19.75;;;8.68;;
32535;SDS011;18974;50.838;4.636;2022-10-19T05:07:26;20.38;;;7.80;;
32535;SDS011;18974;50.838;4.636;2022-10-19T05:09:52;20.50;;;7.30;;
32535;SDS011;18974;50.838;4.636;2022-10-19T05:12:18;20.85;;;7.60;;
32535;SDS011;18974;50.838;4.636;2022-10-19T05:14:43;16.38;;;6.88;;
32535;SDS011;18974;50.838;4.636;2022-10-19T05:17:09;24.48;;;8.25;;
32535;SDS011;18974;50.838;4.636;2022-10-19T05:19:35;18.92;;;7.60;;
32535;SDS011;18974;50.838;4.636;2022-10-19T05:22:00;19.75;;;8.10;;
32535;SDS011;18974;50.838;4.636;2022-10-19T05:24:26;18.17;;;8.00;;
32535;SDS011;18974;50.838;4.636;2022-10-19T05:26:52;21.27;;;7.70;;
32535;SDS011;18974;50.838;4.636;2022-10-19T05:29:18;20.55;;;7.55;;
32535;SDS011;18974;50.838;4.636;2022-10-19T05:31:43;22.63;;;7.40;;
32535;SDS011;18974;50.838;4.636;2022-10-19T05:34:09;19.13;;;7.63;;
32535;SDS011;18974;50.838;4.636;2022-10-19T05:36:36;20.08;;;7.35;;
32535;SDS011;18974;50.838;4.636;2022-10-19T05:39:04;28.20;;;9.18;;
32535;SDS011;18974;50.838;4.636;2022-10-19T05:41:32;19.13;;;7.43;;
32535;SDS011;18974;50.838;4.636;2022-10-19T05:43:59;25.73;;;7.57;;
32535;SDS011;18974;50.838;4.636;2022-10-19T05:46:26;19.52;;;7.75;;
32535;SDS011;18974;50.838;4.636;2022-10-19T05:48:56;25.40;;;8.40;;
32535;SDS011;18974;50.838;4.636;2022-10-19T05:51:23;23.05;;;9.07;;
32535;SDS011;18974;50.838;4.636;2022-10-19T05:53:51;22.38;;;9.00;;
32535;SDS011;18974;50.838;4.636;2022-10-19T05:56:22;25.23;;;7.90;;
32535;SDS011;18974;50.838;4.636;2022-10-19T05:58:49;21.40;;;7.85;;
32535;SDS011;18974;50.838;4.636;2022-10-19T06:01:16;30.88;;;8.68;;
32535;SDS011;18974;50.838;4.636;2022-10-19T06:03:45;18.85;;;7.85;;
32535;SDS011;18974;50.838;4.636;2022-10-19T06:06:14;17.55;;;7.90;;
32535;SDS011;18974;50.838;4.636;2022-10-19T06:08:40;15.48;;;7.80;;
32535;SDS011;18974;50.838;4.636;2022-10-19T06:11:10;24.75;;;8.02;;
32535;SDS011;18974;50.838;4.636;2022-10-19T06:13:38;19.48;;;8.48;;
32535;SDS011;18974;50.838;4.636;2022-10-19T06:16:05;16.75;;;7.93;;
32535;SDS011;18974;50.838;4.636;2022-10-19T06:18:32;18.63;;;9.05;;
32535;SDS011;18974;50.838;4.636;2022-10-19T06:21:02;22.52;;;8.48;;
32535;SDS011;18974;50.838;4.636;2022-10-19T06:23:29;24.15;;;7.95;;
32535;SDS011;18974;50.838;4.636;2022-10-19T06:25:56;15.55;;;8.50;;
32535;SDS011;18974;50.838;4.636;2022-10-19T06:28:22;27.15;;;8.30;;
32535;SDS011;18974;50.838;4.636;2022-10-19T06:30:47;18.55;;;8.07;;
32535;SDS011;18974;50.838;4.636;2022-10-19T06:33:13;17.13;;;7.57;;
32535;SDS011;18974;50.838;4.636;2022-10-19T06:35:39;22.00;;;8.68;;
32535;SDS011;18974;50.838;4.636;2022-10-19T06:38:07;21.45;;;9.07;;
32535;SDS011;18974;50.838;4.636;2022-10-19T06:40:33;23.13;;;8.88;;
32535;SDS011;18974;50.838;4.636;2022-10-19T06:42:59;20.23;;;9.10;;
32535;SDS011;18974;50.838;4.636;2022-10-19T06:45:25;24.52;;;8.85;;
32535;SDS011;18974;50.838;4.636;2022-10-19T06:47:51;22.98;;;8.60;;
32535;SDS011;18974;50.838;4.636;2022-10-19T06:50:17;25.60;;;9.15;;
32535;SDS011;18974;50.838;4.636;2022-10-19T06:52:43;29.85;;;10.30;;
32535;SDS011;18974;50.838;4.636;2022-10-19T06:55:10;23.70;;;10.10;;
32535;SDS011;18974;50.838;4.636;2022-10-19T06:57:35;21.50;;;9.50;;
32535;SDS011;18974;50.838;4.636;2022-10-19T07:00:01;25.20;;;10.07;;
32535;SDS011;18974;50.838;4.636;2022-10-19T07:02:28;32.97;;;10.32;;
32535;SDS011;18974;50.838;4.636;2022-10-19T07:04:53;30.02;;;10.02;;
32535;SDS011;18974;50.838;4.636;2022-10-19T07:07:19;23.73;;;9.45;;
32535;SDS011;18974;50.838;4.636;2022-10-19T07:09:46;28.60;;;10.43;;
32535;SDS011;18974;50.838;4.636;2022-10-19T07:12:12;28.38;;;10.63;;
32535;SDS011;18974;50.838;4.636;2022-10-19T07:14:38;30.02;;;11.43;;
32535;SDS011;18974;50.838;4.636;2022-10-19T07:17:04;23.13;;;9.95;;
32535;SDS011;18974;50.838;4.636;2022-10-19T07:19:30;24.50;;;10.15;;
32535;SDS011;18974;50.838;4.636;2022-10-19T07:21:56;21.80;;;9.18;;
32535;SDS011;18974;50.838;4.636;2022-10-19T07:24:22;26.88;;;11.25;;
32535;SDS011;18974;50.838;4.636;2022-10-19T07:26:48;24.30;;;10.52;;
32535;SDS011;18974;50.838;4.636;2022-10-19T07:29:14;29.27;;;9.88;;
32535;SDS011;18974;50.838;4.636;2022-10-19T07:31:39;27.35;;;10.77;;
32535;SDS011;18974;50.838;4.636;2022-10-19T07:34:05;22.13;;;9.85;;
32535;SDS011;18974;50.838;4.636;2022-10-19T07:36:32;23.33;;;9.98;;
32535;SDS011;18974;50.838;4.636;2022-10-19T07:39:02;27.98;;;9.85;;
32535;SDS011;18974;50.838;4.636;2022-10-19T07:41:30;33.40;;;12.25;;
32535;SDS011;18974;50.838;4.636;2022-10-19T07:43:56;26.40;;;11.18;;
32535;SDS011;18974;50.838;4.636;2022-10-19T07:46:25;26.25;;;11.35;;
32535;SDS011;18974;50.838;4.636;2022-10-19T07:48:58;31.50;;;11.60;;
32535;SDS011;18974;50.838;4.636;2022-10-19T07:51:24;25.73;;;11.27;;
32535;SDS011;18974;50.838;4.636;2022-10-19T07:53:50;25.85;;;11.45;;
32535;SDS011;18974;50.838;4.636;2022-10-19T07:56:18;28.63;;;12.10;;
32535;SDS011;18974;50.838;4.636;2022-10-19T07:58:45;30.77;;;11.30;;
32535;SDS011;18974;50.838;4.636;2022-10-19T08:01:15;23.83;;;10.18;;
32535;SDS011;18974;50.838;4.636;2022-10-19T08:03:46;27.25;;;10.80;;
32535;SDS011;18974;50.838;4.636;2022-10-19T08:06:13;24.40;;;12.45;;
32535;SDS011;18974;50.838;4.636;2022-10-19T08:08:43;19.50;;;10.23;;
32535;SDS011;18974;50.838;4.636;2022-10-19T08:11:18;20.85;;;10.18;;
32535;SDS011;18974;50.838;4.636;2022-10-19T08:13:54;20.77;;;10.20;;
32535;SDS011;18974;50.838;4.636;2022-10-19T08:16:28;27.17;;;10.65;;
32535;SDS011;18974;50.838;4.636;2022-10-19T08:19:05;20.48;;;9.80;;
32535;SDS011;18974;50.838;4.636;2022-10-19T08:21:35;25.55;;;10.18;;
32535;SDS011;18974;50.838;4.636;2022-10-19T08:24:03;20.25;;;10.23;;
32535;SDS011;18974;50.838;4.636;2022-10-19T08:26:31;25.85;;;10.18;;
32535;SDS011;18974;50.838;4.636;2022-10-19T08:29:01;27.55;;;10.40;;
32535;SDS011;18974;50.838;4.636;2022-10-19T08:31:27;24.25;;;10.23;;
32535;SDS011;18974;50.838;4.636;2022-10-19T08:33:54;27.02;;;9.77;;
32535;SDS011;18974;50.838;4.636;2022-10-19T08:36:20;16.98;;;9.68;;
32535;SDS011;18974;50.838;4.636;2022-10-19T08:38:46;23.25;;;10.70;;
32535;SDS011;18974;50.838;4.636;2022-10-19T08:49:35;17.77;;;8.57;;
32535;SDS011;18974;50.838;4.636;2022-10-19T08:52:05;19.25;;;8.52;;
32535;SDS011;18974;50.838;4.636;2022-10-19T08:57:30;24.38;;;9.18;;
32535;SDS011;18974;50.838;4.636;2022-10-19T09:03:00;19.70;;;9.23;;
32535;SDS011;18974;50.838;4.636;2022-10-19T09:08:13;21.10;;;9.50;;
32535;SDS011;18974;50.838;4.636;2022-10-19T09:10:40;18.60;;;9.13;;
32535;SDS011;18974;50.838;4.636;2022-10-19T09:16:02;22.38;;;8.73;;
32535;SDS011;18974;50.838;4.636;2022-10-19T09:18:29;19.08;;;9.23;;
32535;SDS011;18974;50.838;4.636;2022-10-19T09:20:59;22.95;;;8.68;;
32535;SDS011;18974;50.838;4.636;2022-10-19T09:26:21;18.73;;;8.73;;
32535;SDS011;18974;50.838;4.636;2022-10-19T09:28:53;18.92;;;8.18;;
32535;SDS011;18974;50.838;4.636;2022-10-19T09:31:36;26.90;;;9.02;;
32535;SDS011;18974;50.838;4.636;2022-10-19T09:37:00;19.02;;;8.93;;
32535;SDS011;18974;50.838;4.636;2022-10-19T09:39:27;16.25;;;8.88;;
32535;SDS011;18974;50.838;4.636;2022-10-19T09:41:55;17.42;;;8.50;;
32535;SDS011;18974;50.838;4.636;2022-10-19T09:44:23;24.30;;;8.68;;
32535;SDS011;18974;50.838;4.636;2022-10-19T09:49:41;19.58;;;8.82;;
32535;SDS011;18974;50.838;4.636;2022-10-19T09:52:22;21.25;;;8.73;;
32535;SDS011;18974;50.838;4.636;2022-10-19T09:55:01;23.65;;;8.07;;
32535;SDS011;18974;50.838;4.636;2022-10-19T09:57:43;26.20;;;8.20;;
32535;SDS011;18974;50.838;4.636;2022-10-19T10:00:19;22.45;;;9.10;;
32535;SDS011;18974;50.838;4.636;2022-10-19T10:02:51;26.75;;;10.60;;
32535;SDS011;18974;50.838;4.636;2022-10-19T10:05:18;18.42;;;8.93;;
32535;SDS011;18974;50.838;4.636;2022-10-19T10:07:53;28.00;;;9.45;;
32535;SDS011;18974;50.838;4.636;2022-10-19T10:10:21;17.00;;;8.63;;
32535;SDS011;18974;50.838;4.636;2022-10-19T10:12:49;18.17;;;8.40;;
32535;SDS011;18974;50.838;4.636;2022-10-19T10:15:18;19.10;;;9.05;;
32535;SDS011;18974;50.838;4.636;2022-10-19T10:17:48;26.85;;;8.68;;
32535;SDS011;18974;50.838;4.636;2022-10-19T10:20:28;23.23;;;8.63;;
32535;SDS011;18974;50.838;4.636;2022-10-19T10:23:00;19.83;;;8.70;;
32535;SDS011;18974;50.838;4.636;2022-10-19T10:25:29;24.45;;;8.88;;
32535;SDS011;18974;50.838;4.636;2022-10-19T10:28:03;18.98;;;9.00;;
32535;SDS011;18974;50.838;4.636;2022-10-19T10:30:45;23.42;;;8.95;;
32535;SDS011;18974;50.838;4.636;2022-10-19T10:33:16;17.95;;;8.90;;
32535;SDS011;18974;50.838;4.636;2022-10-19T10:35:49;19.60;;;9.05;;
32535;SDS011;18974;50.838;4.636;2022-10-19T10:38:21;21.42;;;8.38;;
32535;SDS011;18974;50.838;4.636;2022-10-19T10:40:53;18.05;;;8.75;;
32535;SDS011;18974;50.838;4.636;2022-10-19T10:43:30;21.85;;;9.25;;
32535;SDS011;18974;50.838;4.636;2022-10-19T10:46:04;21.23;;;9.18;;
32535;SDS011;18974;50.838;4.636;2022-10-19T10:53:50;18.15;;;9.32;;
32535;SDS011;18974;50.838;4.636;2022-10-19T10:56:36;23.98;;;9.32;;
32535;SDS011;18974;50.838;4.636;2022-10-19T10:59:14;20.23;;;8.80;;
32535;SDS011;18974;50.838;4.636;2022-10-19T11:01:52;20.10;;;9.73;;
32535;SDS011;18974;50.838;4.636;2022-10-19T11:04:32;20.42;;;8.68;;
32535;SDS011;18974;50.838;4.636;2022-10-19T11:07:22;22.40;;;9.55;;
32535;SDS011;18974;50.838;4.636;2022-10-19T11:09:55;23.98;;;8.80;;
32535;SDS011;18974;50.838;4.636;2022-10-19T11:12:27;19.45;;;9.57;;
32535;SDS011;18974;50.838;4.636;2022-10-19T11:15:05;23.38;;;7.93;;
32535;SDS011;18974;50.838;4.636;2022-10-19T11:17:47;23.67;;;8.60;;
32535;SDS011;18974;50.838;4.636;2022-10-19T11:20:19;19.30;;;10.32;;
32535;SDS011;18974;50.838;4.636;2022-10-19T11:22:52;23.85;;;8.57;;
32535;SDS011;18974;50.838;4.636;2022-10-19T11:28:37;23.70;;;9.07;;
32535;SDS011;18974;50.838;4.636;2022-10-19T11:31:48;22.55;;;9.00;;
32535;SDS011;18974;50.838;4.636;2022-10-19T11:37:45;25.27;;;10.00;;
32535;SDS011;18974;50.838;4.636;2022-10-19T11:42:48;25.15;;;8.93;;
32535;SDS011;18974;50.838;4.636;2022-10-19T11:45:33;19.80;;;8.52;;
32535;SDS011;18974;50.838;4.636;2022-10-19T11:51:15;22.02;;;9.73;;
32535;SDS011;18974;50.838;4.636;2022-10-19T11:57:08;21.25;;;8.85;;
32535;SDS011;18974;50.838;4.636;2022-10-19T12:05:12;19.48;;;9.45;;
32535;SDS011;18974;50.838;4.636;2022-10-19T12:11:04;14.40;;;8.13;;
32535;SDS011;18974;50.838;4.636;2022-10-19T12:13:39;19.13;;;8.52;;
32535;SDS011;18974;50.838;4.636;2022-10-19T12:16:11;24.52;;;8.65;;
32535;SDS011;18974;50.838;4.636;2022-10-19T12:18:40;19.48;;;8.30;;
32535;SDS011;18974;50.838;4.636;2022-10-19T12:21:16;19.15;;;8.57;;
32535;SDS011;18974;50.838;4.636;2022-10-19T12:23:53;17.30;;;8.93;;
32535;SDS011;18974;50.838;4.636;2022-10-19T12:26:21;23.90;;;9.55;;
32535;SDS011;18974;50.838;4.636;2022-10-19T12:28:57;18.02;;;8.65;;
32535;SDS011;18974;50.838;4.636;2022-10-19T12:31:25;14.48;;;8.68;;
32535;SDS011;18974;50.838;4.636;2022-10-19T12:33:57;15.15;;;8.35;;
32535;SDS011;18974;50.838;4.636;2022-10-19T12:55:59;20.88;;;7.28;;
32535;SDS011;18974;50.838;4.636;2022-10-19T12:58:33;17.23;;;7.53;;
32535;SDS011;18974;50.838;4.636;2022-10-19T13:01:03;15.25;;;6.82;;
32535;SDS011;18974;50.838;4.636;2022-10-19T13:03:37;14.85;;;7.43;;
32535;SDS011;18974;50.838;4.636;2022-10-19T13:06:11;16.08;;;6.93;;
32535;SDS011;18974;50.838;4.636;2022-10-19T13:08:45;17.08;;;7.25;;
32535;SDS011;18974;50.838;4.636;2022-10-19T13:11:18;15.80;;;6.75;;
32535;SDS011;18974;50.838;4.636;2022-10-19T13:14:01;16.10;;;7.00;;
32535;SDS011;18974;50.838;4.636;2022-10-19T13:25:13;13.90;;;6.40;;
32535;SDS011;18974;50.838;4.636;2022-10-19T13:27:41;18.77;;;7.03;;
32535;SDS011;18974;50.838;4.636;2022-10-19T13:32:59;17.30;;;8.05;;
32535;SDS011;18974;50.838;4.636;2022-10-19T13:35:43;17.00;;;7.63;;
32535;SDS011;18974;50.838;4.636;2022-10-19T13:38:18;17.63;;;8.05;;
32535;SDS011;18974;50.838;4.636;2022-10-19T13:45:52;23.83;;;9.20;;
32535;SDS011;18974;50.838;4.636;2022-10-19T13:48:25;22.67;;;9.27;;
32535;SDS011;18974;50.838;4.636;2022-10-19T14:02:33;18.10;;;7.95;;
32535;SDS011;18974;50.838;4.636;2022-10-19T14:11:02;18.77;;;9.63;;
32535;SDS011;18974;50.838;4.636;2022-10-19T14:13:29;15.68;;;7.68;;
32535;SDS011;18974;50.838;4.636;2022-10-19T14:15:56;13.43;;;8.10;;
32535;SDS011;18974;50.838;4.636;2022-10-19T14:18:29;19.92;;;8.98;;
32535;SDS011;18974;50.838;4.636;2022-10-19T14:21:01;16.65;;;8.15;;
32535;SDS011;18974;50.838;4.636;2022-10-19T14:23:29;17.75;;;8.32;;
32535;SDS011;18974;50.838;4.636;2022-10-19T14:26:00;19.70;;;9.18;;
32535;SDS011;18974;50.838;4.636;2022-10-19T14:28:29;19.25;;;8.50;;
32535;SDS011;18974;50.838;4.636;2022-10-19T14:31:03;22.20;;;9.35;;
32535;SDS011;18974;50.838;4.636;2022-10-19T14:33:31;20.90;;;10.13;;
32535;SDS011;18974;50.838;4.636;2022-10-19T14:36:02;20.40;;;10.40;;
32535;SDS011;18974;50.838;4.636;2022-10-19T14:38:39;22.17;;;10.15;;
32535;SDS011;18974;50.838;4.636;2022-10-19T14:41:18;22.15;;;10.07;;
32535;SDS011;18974;50.838;4.636;2022-10-19T14:43:56;19.75;;;10.75;;
32535;SDS011;18974;50.838;4.636;2022-10-19T14:46:27;17.63;;;10.48;;
32535;SDS011;18974;50.838;4.636;2022-10-19T14:48:59;19.42;;;10.85;;
32535;SDS011;18974;50.838;4.636;2022-10-19T14:54:25;21.40;;;11.82;;
32535;SDS011;18974;50.838;4.636;2022-10-19T14:56:57;19.92;;;11.32;;
32535;SDS011;18974;50.838;4.636;2022-10-19T15:02:16;21.20;;;12.32;;
32535;SDS011;18974;50.838;4.636;2022-10-19T15:04:46;18.98;;;11.77;;
32535;SDS011;18974;50.838;4.636;2022-10-19T15:07:14;20.45;;;11.52;;
32535;SDS011;18974;50.838;4.636;2022-10-19T15:09:51;23.73;;;13.27;;
32535;SDS011;18974;50.838;4.636;2022-10-19T15:12:41;25.85;;;12.10;;
32535;SDS011;18974;50.838;4.636;2022-10-19T15:15:09;22.48;;;12.40;;
32535;SDS011;18974;50.838;4.636;2022-10-19T15:18:03;27.15;;;13.88;;
32535;SDS011;18974;50.838;4.636;2022-10-19T15:28:36;25.60;;;13.27;;
32535;SDS011;18974;50.838;4.636;2022-10-19T15:31:04;22.67;;;12.27;;
32535;SDS011;18974;50.838;4.636;2022-10-19T15:33:41;25.60;;;13.27;;
32535;SDS011;18974;50.838;4.636;2022-10-19T15:36:10;24.73;;;13.63;;
32535;SDS011;18974;50.838;4.636;2022-10-19T15:38:44;25.15;;;12.00;;
32535;SDS011;18974;50.838;4.636;2022-10-19T15:41:25;25.67;;;13.88;;
32535;SDS011;18974;50.838;4.636;2022-10-19T15:44:02;25.75;;;13.43;;
32535;SDS011;18974;50.838;4.636;2022-10-19T15:52:14;37.20;;;17.15;;
32535;SDS011;18974;50.838;4.636;2022-10-19T15:54:41;30.75;;;15.05;;
32535;SDS011;18974;50.838;4.636;2022-10-19T15:57:21;32.33;;;15.23;;
32535;SDS011;18974;50.838;4.636;2022-10-19T15:59:55;76.75;;;35.88;;
32535;SDS011;18974;50.838;4.636;2022-10-19T16:02:22;34.97;;;19.10;;
32535;SDS011;18974;50.838;4.636;2022-10-19T16:04:51;26.42;;;16.35;;
32535;SDS011;18974;50.838;4.636;2022-10-19T16:07:20;26.20;;;14.82;;
32535;SDS011;18974;50.838;4.636;2022-10-19T16:09:52;33.30;;;16.40;;
32535;SDS011;18974;50.838;4.636;2022-10-19T16:12:19;35.75;;;15.25;;
32535;SDS011;18974;50.838;4.636;2022-10-19T16:14:45;34.67;;;16.55;;
32535;SDS011;18974;50.838;4.636;2022-10-19T16:17:11;54.05;;;23.80;;
32535;SDS011;18974;50.838;4.636;2022-10-19T16:19:38;41.85;;;20.73;;
32535;SDS011;18974;50.838;4.636;2022-10-19T16:22:04;49.20;;;24.88;;
32535;SDS011;18974;50.838;4.636;2022-10-19T16:24:29;32.72;;;16.25;;
32535;SDS011;18974;50.838;4.636;2022-10-19T16:26:55;30.95;;;15.85;;
32535;SDS011;18974;50.838;4.636;2022-10-19T16:29:21;26.98;;;15.18;;
32535;SDS011;18974;50.838;4.636;2022-10-19T16:31:47;31.58;;;15.95;;
32535;SDS011;18974;50.838;4.636;2022-10-19T16:34:12;22.38;;;14.05;;
32535;SDS011;18974;50.838;4.636;2022-10-19T16:36:38;26.10;;;13.85;;
32535;SDS011;18974;50.838;4.636;2022-10-19T16:39:04;32.45;;;15.07;;
32535;SDS011;18974;50.838;4.636;2022-10-19T16:41:29;28.10;;;14.27;;
32535;SDS011;18974;50.838;4.636;2022-10-19T16:43:56;27.25;;;14.80;;
32535;SDS011;18974;50.838;4.636;2022-10-19T16:46:22;25.90;;;14.63;;
32535;SDS011;18974;50.838;4.636;2022-10-19T16:48:48;28.45;;;14.73;;
32535;SDS011;18974;50.838;4.636;2022-10-19T16:51:17;27.52;;;14.90;;
32535;SDS011;18974;50.838;4.636;2022-10-19T16:53:45;27.00;;;15.57;;
32535;SDS011;18974;50.838;4.636;2022-10-19T16:56:15;25.67;;;15.40;;
32535;SDS011;18974;50.838;4.636;2022-10-19T16:58:40;32.92;;;16.13;;
32535;SDS011;18974;50.838;4.636;2022-10-19T17:01:10;30.73;;;16.42;;
32535;SDS011;18974;50.838;4.636;2022-10-19T17:03:37;31.00;;;14.50;;
32535;SDS011;18974;50.838;4.636;2022-10-19T17:06:03;26.73;;;14.68;;
32535;SDS011;18974;50.838;4.636;2022-10-19T17:08:30;26.05;;;13.93;;
32535;SDS011;18974;50.838;4.636;2022-10-19T17:10:56;23.67;;;14.05;;
32535;SDS011;18974;50.838;4.636;2022-10-19T17:13:22;28.65;;;14.25;;
32535;SDS011;18974;50.838;4.636;2022-10-19T17:15:48;29.42;;;15.65;;
32535;SDS011;18974;50.838;4.636;2022-10-19T17:18:13;27.13;;;14.18;;
32535;SDS011;18974;50.838;4.636;2022-10-19T17:20:39;30.77;;;14.05;;
32535;SDS011;18974;50.838;4.636;2022-10-19T17:23:05;27.65;;;13.93;;
32535;SDS011;18974;50.838;4.636;2022-10-19T17:25:31;28.30;;;14.10;;